createdAt,value
2022-12-27T00:02:24.319Z,3.43
2022-12-27T00:04:51.136Z,3.97
2022-12-27T00:07:17.745Z,3.43
2022-12-27T00:09:44.495Z,3.00
2022-12-27T00:12:11.473Z,4.07
2022-12-27T00:14:38.162Z,3.17
2022-12-27T00:17:04.991Z,3.80
2022-12-27T00:19:31.764Z,4.60
2022-12-27T00:21:58.466Z,3.60
2022-12-27T00:24:25.210Z,3.53
2022-12-27T00:26:51.928Z,3.20
2022-12-27T00:29:18.714Z,2.73
2022-12-27T00:31:45.547Z,2.33
2022-12-27T00:34:12.374Z,2.37
2022-12-27T00:36:39.016Z,2.10
2022-12-27T00:39:05.958Z,1.80
2022-12-27T00:41:32.813Z,2.20
2022-12-27T00:43:59.463Z,2.50
2022-12-27T00:46:26.314Z,2.00
2022-12-27T00:48:53.608Z,1.90
2022-12-27T00:51:22.884Z,1.92
2022-12-27T00:53:51.201Z,1.73
2022-12-27T00:56:27.399Z,1.60
2022-12-27T00:58:59.157Z,1.60
2022-12-27T01:01:28.264Z,2.13
2022-12-27T01:03:56.778Z,1.93
2022-12-27T01:06:29.030Z,1.57
2022-12-27T01:08:56.940Z,1.77
2022-12-27T01:11:24.614Z,1.90
2022-12-27T01:13:51.427Z,1.90
2022-12-27T01:16:21.397Z,1.70
2022-12-27T01:18:48.533Z,2.90
2022-12-27T01:21:19.449Z,3.93
2022-12-27T01:23:47.067Z,4.30
2022-12-27T01:26:17.327Z,3.80
2022-12-27T01:28:45.117Z,3.33
2022-12-27T01:32:11.536Z,3.47
2022-12-27T01:35:38.209Z,3.50
2022-12-27T01:39:04.653Z,3.97
2022-12-27T01:42:30.006Z,3.35
2022-12-27T01:45:56.482Z,3.80
2022-12-27T01:52:15.397Z,3.60
2022-12-27T01:54:43.207Z,3.50
2022-12-27T01:57:10.528Z,3.20
2022-12-27T01:59:38.139Z,3.25
2022-12-27T02:02:05.471Z,3.17
2022-12-27T02:04:33.213Z,3.03
2022-12-27T02:07:01.070Z,3.33
2022-12-27T02:09:38.562Z,3.00
2022-12-27T02:12:07.758Z,3.37
2022-12-27T02:14:39.032Z,3.47
2022-12-27T02:17:09.733Z,3.20
2022-12-27T02:19:42.093Z,2.50
2022-12-27T02:23:14.116Z,2.80
2022-12-27T02:25:52.684Z,2.60
2022-12-27T02:28:47.035Z,3.00
2022-12-27T02:31:29.320Z,2.30
2022-12-27T02:34:00.243Z,1.75
2022-12-27T02:36:31.615Z,2.73
2022-12-27T02:39:02.762Z,2.07
2022-12-27T02:41:52.470Z,1.70
2022-12-27T02:44:38.786Z,2.00
2022-12-27T02:47:42.208Z,1.83
2022-12-27T02:50:31.483Z,1.90
2022-12-27T02:53:05.982Z,1.57
2022-12-27T02:55:35.888Z,1.07
2022-12-27T02:58:24.146Z,0.90
2022-12-27T03:01:31.086Z,1.13
2022-12-27T03:04:17.955Z,1.27
2022-12-27T03:07:10.657Z,1.20
2022-12-27T03:10:13.282Z,1.05
2022-12-27T03:13:09.685Z,1.13
2022-12-27T03:16:19.089Z,1.43
2022-12-27T03:19:36.348Z,0.83
2022-12-27T03:22:22.556Z,0.77
2022-12-27T03:25:08.144Z,0.60
2022-12-27T03:27:37.349Z,0.47
2022-12-27T03:30:27.231Z,1.10
2022-12-27T03:33:15.581Z,0.50
2022-12-27T03:36:27.587Z,0.80
2022-12-27T03:39:14.153Z,0.60
2022-12-27T03:42:13.800Z,1.27
2022-12-27T03:44:40.620Z,0.90
2022-12-27T03:47:17.194Z,0.57
2022-12-27T03:50:03.400Z,0.40
2022-12-27T03:52:48.931Z,0.50
2022-12-27T03:55:17.527Z,1.00
2022-12-27T03:57:44.362Z,1.23
2022-12-27T04:00:12.188Z,0.70
2022-12-27T04:02:39.359Z,0.50
2022-12-27T04:05:06.566Z,0.70
2022-12-27T04:07:33.618Z,0.60
2022-12-27T04:10:18.756Z,0.57
2022-12-27T04:13:04.417Z,0.50
2022-12-27T04:15:50.922Z,0.70
2022-12-27T04:18:36.609Z,1.53
2022-12-27T04:21:22.124Z,1.10
2022-12-27T04:24:07.690Z,0.77
2022-12-27T04:26:53.276Z,0.50
2022-12-27T04:29:38.591Z,0.80
2022-12-27T04:32:24.044Z,0.53
2022-12-27T04:34:50.890Z,0.77
2022-12-27T04:37:19.665Z,0.70
2022-12-27T04:40:06.448Z,0.70
2022-12-27T04:42:51.843Z,0.37
2022-12-27T04:45:37.208Z,0.73
2022-12-27T04:48:23.367Z,0.87
2022-12-27T04:51:08.683Z,0.70
2022-12-27T04:53:53.947Z,0.57
2022-12-27T04:56:20.828Z,0.80
2022-12-27T04:59:06.081Z,0.80
2022-12-27T05:01:51.535Z,0.47
2022-12-27T05:04:18.394Z,0.60
2022-12-27T05:06:45.243Z,1.03
2022-12-27T05:09:30.870Z,1.17
2022-12-27T05:12:17.400Z,0.60
2022-12-27T05:15:44.260Z,0.87
2022-12-27T05:19:10.778Z,0.60
2022-12-27T05:22:34.960Z,0.63
2022-12-27T05:27:46.621Z,1.00
2022-12-27T05:30:13.328Z,0.60
2022-12-27T05:32:39.939Z,0.60
2022-12-27T05:35:07.088Z,0.60
2022-12-27T05:37:34.226Z,0.50
2022-12-27T05:40:00.989Z,0.50
2022-12-27T05:42:27.720Z,0.70
2022-12-27T05:44:54.397Z,0.50
2022-12-27T05:47:21.050Z,0.90
2022-12-27T05:49:47.726Z,1.47
2022-12-27T05:52:14.487Z,0.80
2022-12-27T05:54:41.330Z,0.80
2022-12-27T05:57:08.126Z,0.90
2022-12-27T05:59:34.813Z,1.20
2022-12-27T06:02:02.879Z,0.70
2022-12-27T06:04:29.723Z,1.00
2022-12-27T06:06:56.506Z,0.83
2022-12-27T06:09:23.185Z,1.30
2022-12-27T06:11:49.892Z,0.97
2022-12-27T06:14:16.713Z,0.73
2022-12-27T06:16:43.629Z,0.97
2022-12-27T06:19:10.333Z,0.87
2022-12-27T06:21:37.274Z,0.77
2022-12-27T06:24:04.177Z,0.73
2022-12-27T06:26:31.224Z,1.10
2022-12-27T06:28:58.996Z,1.00
2022-12-27T06:31:26.662Z,0.70
2022-12-27T06:33:54.466Z,0.67
2022-12-27T06:36:23.686Z,0.93
2022-12-27T06:38:50.730Z,0.87
2022-12-27T06:41:19.314Z,1.03
2022-12-27T06:43:47.426Z,0.90
2022-12-27T06:46:18.332Z,0.80
2022-12-27T06:48:48.376Z,0.70
2022-12-27T06:51:16.876Z,1.53
2022-12-27T06:53:43.505Z,1.30
2022-12-27T06:56:12.849Z,1.60
2022-12-27T06:58:40.194Z,1.20
2022-12-27T07:01:12.038Z,1.00
2022-12-27T07:03:39.280Z,1.00
2022-12-27T07:06:08.284Z,1.10
2022-12-27T07:08:36.283Z,0.67
2022-12-27T07:11:08.980Z,0.80
2022-12-27T07:13:41.519Z,1.30
2022-12-27T07:16:10.180Z,0.90
2022-12-27T07:18:37.447Z,0.90
2022-12-27T07:21:09.005Z,0.97
2022-12-27T07:23:37.016Z,0.80
2022-12-27T07:26:05.225Z,1.00
2022-12-27T07:29:31.861Z,0.87
2022-12-27T07:32:58.308Z,0.60
2022-12-27T07:40:17.129Z,0.73
2022-12-27T07:43:04.839Z,0.50
2022-12-27T07:45:32.797Z,1.33
2022-12-27T07:47:59.420Z,0.50
2022-12-27T07:50:26.265Z,0.53
2022-12-27T07:52:53.068Z,0.50
2022-12-27T07:55:19.690Z,0.63
2022-12-27T07:57:46.324Z,0.60
2022-12-27T08:00:13.708Z,0.37
2022-12-27T08:02:40.466Z,0.60
2022-12-27T08:05:07.365Z,0.50
2022-12-27T08:07:34.353Z,0.80
2022-12-27T08:13:45.187Z,0.60
2022-12-27T08:16:23.874Z,0.67
2022-12-27T08:18:51.064Z,0.40
2022-12-27T08:21:17.761Z,1.40
2022-12-27T08:23:44.732Z,0.40
2022-12-27T08:26:11.809Z,0.20
2022-12-27T08:28:38.743Z,0.40
2022-12-27T08:31:08.358Z,0.30
2022-12-27T08:33:35.890Z,0.30
2022-12-27T08:36:28.627Z,0.20
2022-12-27T08:38:55.066Z,0.20
2022-12-27T08:41:22.624Z,0.10
2022-12-27T08:43:49.281Z,0.20
2022-12-27T08:46:16.103Z,0.20
2022-12-27T08:48:42.787Z,0.20
2022-12-27T08:51:13.736Z,0.60
2022-12-27T08:53:41.400Z,0.20
2022-12-27T08:56:08.053Z,0.20
2022-12-27T08:58:34.760Z,0.30
2022-12-27T09:01:06.295Z,0.20
2022-12-27T09:03:33.003Z,0.20
2022-12-27T09:06:19.264Z,0.20
2022-12-27T09:08:47.268Z,0.20
2022-12-27T09:11:16.927Z,0.20
2022-12-27T09:13:44.069Z,0.20
2022-12-27T09:16:14.256Z,0.20
2022-12-27T09:18:42.968Z,0.17
2022-12-27T09:21:14.621Z,0.20
2022-12-27T09:23:41.668Z,0.20
2022-12-27T09:26:11.426Z,0.30
2022-12-27T09:28:38.735Z,0.20
2022-12-27T09:31:05.682Z,0.20
2022-12-27T09:33:32.637Z,0.20
2022-12-27T09:36:09.575Z,0.20
2022-12-27T09:38:36.873Z,0.20
2022-12-27T09:44:33.441Z,0.40
2022-12-27T09:47:29.757Z,0.30
2022-12-27T09:50:02.653Z,0.20
2022-12-27T09:55:46.787Z,0.40
2022-12-27T09:58:52.072Z,0.40
2022-12-27T10:01:47.904Z,0.20
2022-12-27T10:04:17.872Z,0.43
2022-12-27T10:06:50.377Z,0.50
2022-12-27T10:09:30.535Z,0.30
2022-12-27T10:12:32.055Z,0.20
2022-12-27T10:15:21.744Z,0.50
2022-12-27T10:17:54.701Z,0.50
2022-12-27T10:23:10.438Z,0.50
2022-12-27T10:25:39.832Z,0.20
2022-12-27T10:28:34.024Z,0.40
2022-12-27T10:31:03.687Z,0.30
2022-12-27T10:33:34.211Z,0.20
2022-12-27T10:36:07.179Z,0.33
2022-12-27T10:41:19.725Z,0.30
2022-12-27T10:43:50.824Z,0.20
2022-12-27T10:46:32.748Z,0.30
2022-12-27T10:49:23.225Z,0.30
2022-12-27T10:51:56.973Z,0.30
2022-12-27T10:54:30.499Z,0.33
2022-12-27T10:57:17.006Z,0.30
2022-12-27T10:59:43.678Z,0.40
2022-12-27T11:02:19.443Z,0.40
2022-12-27T11:04:59.549Z,0.40
2022-12-27T11:07:34.634Z,0.40
2022-12-27T11:10:26.853Z,0.60
2022-12-27T11:13:01.861Z,0.23
2022-12-27T11:15:43.536Z,0.30
2022-12-27T11:19:06.463Z,0.43
2022-12-27T11:21:39.614Z,0.40
2022-12-27T11:24:12.667Z,0.47
2022-12-27T11:26:54.170Z,0.40
2022-12-27T11:29:24.997Z,0.37
2022-12-27T11:31:53.149Z,0.50
2022-12-27T11:34:28.087Z,0.60
2022-12-27T11:37:03.467Z,0.40
2022-12-27T11:39:40.341Z,0.60
2022-12-27T11:42:22.791Z,0.60
2022-12-27T11:45:03.718Z,0.45
2022-12-27T11:47:37.809Z,0.40
2022-12-27T11:50:18.937Z,0.50
2022-12-27T11:53:07.424Z,1.13
2022-12-27T11:55:52.504Z,0.67
2022-12-27T11:58:32.033Z,0.70
2022-12-27T12:01:23.354Z,0.60
2022-12-27T12:04:24.825Z,0.53
2022-12-27T12:07:29.052Z,0.30
2022-12-27T12:10:07.879Z,0.40
2022-12-27T12:13:06.879Z,0.43
2022-12-27T12:16:06.833Z,0.40
2022-12-27T12:19:10.936Z,0.30
2022-12-27T12:21:58.681Z,0.47
2022-12-27T12:24:34.335Z,0.40
2022-12-27T12:27:30.334Z,0.67
2022-12-27T12:30:22.357Z,0.50
2022-12-27T12:32:55.067Z,0.43
2022-12-27T12:35:44.485Z,0.50
2022-12-27T12:38:33.068Z,0.40
2022-12-27T12:41:38.256Z,0.50
2022-12-27T12:44:37.938Z,0.40
2022-12-27T12:47:32.090Z,0.50
2022-12-27T12:50:26.314Z,0.70
2022-12-27T12:53:00.124Z,0.63
2022-12-27T12:55:45.653Z,0.70
2022-12-27T12:58:21.459Z,0.60
2022-12-27T13:01:02.755Z,0.70
2022-12-27T13:03:38.535Z,0.77
2022-12-27T13:06:20.191Z,0.50
2022-12-27T13:09:17.523Z,0.70
2022-12-27T13:12:03.204Z,0.87
2022-12-27T13:15:09.007Z,0.83
2022-12-27T13:17:46.679Z,0.70
2022-12-27T13:20:44.174Z,0.87
2022-12-27T13:23:45.697Z,0.60
2022-12-27T13:26:21.104Z,1.00
2022-12-27T13:29:06.641Z,0.90
2022-12-27T13:31:45.565Z,0.57
2022-12-27T13:34:34.273Z,0.77
2022-12-27T13:37:39.665Z,0.80
2022-12-27T13:40:09.608Z,0.70
2022-12-27T13:42:36.351Z,0.60
2022-12-27T13:45:07.489Z,0.77
2022-12-27T13:48:05.352Z,0.73
2022-12-27T13:50:53.994Z,0.60
2022-12-27T13:53:59.379Z,0.90
2022-12-27T13:57:23.565Z,0.77
2022-12-27T14:04:17.192Z,0.40
2022-12-27T14:07:25.381Z,0.70
2022-12-27T14:11:06.847Z,0.80
2022-12-27T14:18:46.233Z,0.93
2022-12-27T14:21:57.485Z,0.50
2022-12-27T14:25:40.457Z,0.63
2022-12-27T14:28:39.072Z,2.67
2022-12-27T14:31:49.934Z,0.87
2022-12-27T14:34:47.542Z,1.73
2022-12-27T14:37:20.174Z,1.20
2022-12-27T14:40:34.504Z,1.55
2022-12-27T14:43:30.482Z,1.70
2022-12-27T14:46:16.110Z,1.87
2022-12-27T14:49:00.618Z,1.70
2022-12-27T14:52:00.791Z,2.50
2022-12-27T14:54:37.825Z,3.43
2022-12-27T14:57:07.682Z,2.80
2022-12-27T14:59:52.501Z,3.30
2022-12-27T15:02:42.939Z,2.00
2022-12-27T15:05:35.977Z,4.13
2022-12-27T15:08:32.021Z,2.55
2022-12-27T15:11:21.070Z,2.90
2022-12-27T15:14:22.046Z,1.90
2022-12-27T15:17:09.475Z,1.70
2022-12-27T15:20:14.484Z,2.27
2022-12-27T15:23:07.100Z,2.33
2022-12-27T15:25:47.784Z,1.92
2022-12-27T15:28:35.228Z,1.80
2022-12-27T15:31:06.688Z,3.27
2022-12-27T15:34:04.493Z,3.37
2022-12-27T15:36:46.942Z,1.77
2022-12-27T15:39:35.546Z,2.20
2022-12-27T15:42:08.773Z,1.87
2022-12-27T15:45:00.451Z,3.07
2022-12-27T15:47:30.258Z,1.83
2022-12-27T15:50:33.486Z,2.37
2022-12-27T15:53:03.106Z,2.00
2022-12-27T15:56:06.139Z,2.10
2022-12-27T15:58:33.388Z,2.75
2022-12-27T16:01:26.433Z,2.63
2022-12-27T16:03:55.096Z,2.63
2022-12-27T16:06:33.778Z,1.83
2022-12-27T16:09:36.034Z,2.17
2022-12-27T16:12:13.438Z,2.20
2022-12-27T16:14:42.325Z,1.80
2022-12-27T16:17:39.646Z,2.30
2022-12-27T16:20:18.973Z,2.07
2022-12-27T16:22:45.631Z,2.20
2022-12-27T16:25:35.631Z,3.37
2022-12-27T16:28:19.311Z,1.93
2022-12-27T16:30:57.453Z,2.97
2022-12-27T16:33:27.317Z,2.00
2022-12-27T16:36:15.359Z,2.37
2022-12-27T16:38:47.737Z,3.03
2022-12-27T16:41:35.504Z,2.08
2022-12-27T16:44:02.090Z,2.63
2022-12-27T16:47:04.333Z,3.17
2022-12-27T16:50:08.306Z,2.20
2022-12-27T16:53:07.564Z,2.10
2022-12-27T16:56:03.185Z,2.13
2022-12-27T16:58:29.914Z,2.83
2022-12-27T17:00:59.829Z,2.53
2022-12-27T17:03:35.761Z,3.17
2022-12-27T17:06:32.099Z,2.80
2022-12-27T17:09:08.725Z,2.80
2022-12-27T17:12:01.117Z,3.97
2022-12-27T17:14:33.835Z,3.20
2022-12-27T17:17:10.623Z,2.60
2022-12-27T17:19:45.347Z,3.50
2022-12-27T17:22:15.542Z,4.13
2022-12-27T17:24:47.080Z,2.70
2022-12-27T17:27:38.948Z,4.83
2022-12-27T17:30:19.202Z,2.10
2022-12-27T17:33:09.881Z,2.90
2022-12-27T17:36:17.770Z,2.80
2022-12-27T17:39:10.035Z,2.30
2022-12-27T17:42:25.498Z,2.37
2022-12-27T17:45:18.167Z,3.50
2022-12-27T17:48:03.746Z,4.30
2022-12-27T17:50:31.450Z,3.40
2022-12-27T17:53:34.328Z,2.77
2022-12-27T17:56:41.139Z,3.03
2022-12-27T17:59:12.954Z,2.70
2022-12-27T18:01:57.481Z,3.43
2022-12-27T18:04:24.321Z,2.80
2022-12-27T18:07:00.372Z,3.67
2022-12-27T18:09:30.003Z,6.63
2022-12-27T18:11:56.856Z,11.37
2022-12-27T18:14:23.545Z,18.10
2022-12-27T18:16:50.507Z,14.23
2022-12-27T18:19:20.694Z,13.10
2022-12-27T18:22:05.400Z,8.00
2022-12-27T18:24:33.668Z,3.77
2022-12-27T18:27:15.598Z,11.27
2022-12-27T18:29:42.625Z,12.43
2022-12-27T18:32:11.564Z,31.90
2022-12-27T18:35:00.936Z,19.57
2022-12-27T18:37:27.941Z,15.23
2022-12-27T18:40:00.381Z,18.80
2022-12-27T18:42:44.835Z,16.63
2022-12-27T18:45:27.534Z,22.67
2022-12-27T18:47:58.235Z,20.33
2022-12-27T18:50:27.777Z,10.93
2022-12-27T18:53:47.048Z,9.53
2022-12-27T18:56:13.637Z,7.77
2022-12-27T18:58:40.556Z,11.67
2022-12-27T19:01:19.531Z,11.60
2022-12-27T19:04:14.530Z,15.73
2022-12-27T19:06:55.300Z,7.83
2022-12-27T19:09:35.846Z,7.97
2022-12-27T19:12:05.965Z,6.47
2022-12-27T19:14:41.110Z,9.63
2022-12-27T19:17:14.841Z,4.03
2022-12-27T19:19:47.034Z,8.47
2022-12-27T19:22:51.719Z,6.40
2022-12-27T19:25:23.230Z,7.87
2022-12-27T19:28:16.167Z,7.20
2022-12-27T19:30:47.370Z,9.27
2022-12-27T19:33:30.235Z,6.57
2022-12-27T19:35:57.344Z,13.57
2022-12-27T19:38:26.816Z,9.80
2022-12-27T19:41:03.353Z,7.40
2022-12-27T19:43:39.278Z,7.63
2022-12-27T19:46:06.135Z,17.07
2022-12-27T19:48:32.990Z,4.00
2022-12-27T19:50:59.823Z,3.73
2022-12-27T19:53:40.193Z,4.20
2022-12-27T19:56:10.937Z,3.83
2022-12-27T19:58:37.925Z,3.93
2022-12-27T20:01:04.920Z,4.03
2022-12-27T20:03:31.656Z,3.13
2022-12-27T20:06:12.626Z,2.90
2022-12-27T20:08:49.808Z,3.77
2022-12-27T20:11:22.270Z,2.50
2022-12-27T20:13:50.020Z,4.20
2022-12-27T20:16:19.238Z,4.07
2022-12-27T20:18:46.728Z,2.73
2022-12-27T20:21:18.576Z,3.37
2022-12-27T20:23:46.133Z,2.77
2022-12-27T20:26:16.790Z,4.70
2022-12-27T20:28:43.421Z,3.40
2022-12-27T20:31:12.593Z,3.13
2022-12-27T20:33:39.472Z,3.20
2022-12-27T20:36:06.948Z,2.70
2022-12-27T20:38:33.576Z,3.23
2022-12-27T20:41:08.823Z,4.07
2022-12-27T20:43:35.941Z,2.87
2022-12-27T20:46:10.411Z,4.20
2022-12-27T20:48:38.396Z,3.30
2022-12-27T20:51:09.782Z,3.07
2022-12-27T20:53:37.058Z,3.70
2022-12-27T20:56:05.579Z,3.83
2022-12-27T20:58:33.188Z,2.93
2022-12-27T21:01:26.988Z,3.73
2022-12-27T21:03:56.128Z,4.47
2022-12-27T21:06:28.547Z,4.07
2022-12-27T21:08:57.687Z,4.15
2022-12-27T21:11:32.299Z,3.50
2022-12-27T21:14:01.488Z,2.87
2022-12-27T21:16:30.430Z,2.57
2022-12-27T21:18:57.903Z,4.63
2022-12-27T21:21:29.292Z,3.27
2022-12-27T21:23:58.110Z,2.83
2022-12-27T21:26:29.174Z,4.03
2022-12-27T21:28:57.478Z,3.23
2022-12-27T21:31:27.194Z,4.57
2022-12-27T21:33:56.518Z,3.37
2022-12-27T21:36:25.230Z,3.10
2022-12-27T21:38:53.081Z,2.70
2022-12-27T21:41:24.352Z,2.83
2022-12-27T21:43:52.101Z,2.27
2022-12-27T21:46:20.561Z,2.60
2022-12-27T21:48:48.300Z,2.80
2022-12-27T21:51:22.408Z,3.57
2022-12-27T21:53:52.102Z,3.03
2022-12-27T21:57:03.109Z,2.80
2022-12-27T22:04:11.577Z,4.17
2022-12-27T22:06:55.167Z,2.80
2022-12-27T22:09:30.179Z,2.70
2022-12-27T22:12:16.883Z,2.60
2022-12-27T22:15:11.312Z,2.57
2022-12-27T22:17:51.410Z,4.03
2022-12-27T22:20:19.787Z,3.40
2022-12-27T22:22:46.539Z,3.33
2022-12-27T22:25:13.230Z,2.80
2022-12-27T22:27:42.236Z,2.43
2022-12-27T22:30:09.310Z,2.70
2022-12-27T22:32:44.071Z,4.60
2022-12-27T22:35:10.774Z,3.63
2022-12-27T22:37:41.597Z,5.73
2022-12-27T22:41:08.335Z,3.63
2022-12-27T22:44:34.722Z,3.10
2022-12-27T22:49:49.644Z,3.27
2022-12-27T22:52:16.451Z,4.63
2022-12-27T22:55:04.991Z,4.10
2022-12-27T22:57:29.939Z,3.67
2022-12-27T22:59:56.602Z,4.37
2022-12-27T23:02:23.419Z,2.57
2022-12-27T23:04:50.476Z,3.57
2022-12-27T23:07:20.141Z,2.63
2022-12-27T23:09:46.965Z,3.27
2022-12-27T23:12:13.877Z,3.70
2022-12-27T23:14:40.881Z,2.97
2022-12-27T23:17:07.850Z,3.07
2022-12-27T23:19:34.718Z,4.33
2022-12-27T23:22:01.316Z,3.30
2022-12-27T23:24:27.982Z,4.37
2022-12-27T23:26:54.738Z,4.17
2022-12-27T23:29:21.338Z,4.10
2022-12-27T23:31:54.303Z,3.97
2022-12-27T23:34:27.637Z,4.63
2022-12-27T23:36:55.561Z,3.97
2022-12-27T23:39:22.198Z,3.80
2022-12-27T23:41:49.105Z,3.00
2022-12-27T23:44:18.592Z,3.10
2022-12-27T23:46:49.708Z,3.50
2022-12-27T23:49:17.574Z,3.20
2022-12-27T23:51:44.272Z,3.60
2022-12-27T23:54:11.026Z,2.83
2022-12-27T23:56:37.704Z,3.77
2022-12-27T23:59:06.791Z,3.50
